Time;durP1;ratioP1;P1;durP2;ratioP2;P2;SDS_P1;SDS_P2;PMS_P1;PMS_P2;Temp;Humidity;BMP_temperature;BMP_pressure;BME280_temperature;BME280_humidity;BME280_pressure;Samples;Min_cycle;Max_cycle;Signal;HPM_P1;HPM_P2
2023/02/04 00:00:48;;;;;;;;;13.00;10.67;;;;;12.39;100.00;103293.66;5099658;27;46147;-71
2023/02/04 00:03:15;;;;;;;;;10.33;9.00;;;;;12.41;100.00;103301.66;5098264;27;58297;-70
2023/02/04 00:05:40;;;;;;;;;10.67;9.00;;;;;12.38;100.00;103299.78;5064545;27;45337;-70
2023/02/04 00:08:06;;;;;;;;;16.00;8.67;;;;;12.35;100.00;103291.69;5081127;27;45169;-70
2023/02/04 00:10:31;;;;;;;;;12.00;8.33;;;;;12.30;100.00;103291.53;5099499;27;45765;-71
2023/02/04 00:12:57;;;;;;;;;10.67;10.00;;;;;12.28;100.00;103287.00;5081418;27;45465;-70
2023/02/04 00:15:22;;;;;;;;;10.67;9.00;;;;;12.27;100.00;103293.13;5080283;27;62924;-70
2023/02/04 00:17:47;;;;;;;;;8.67;8.67;;;;;12.23;100.00;103294.72;5099604;27;45478;-70
2023/02/04 00:20:13;;;;;;;;;9.00;8.00;;;;;12.22;100.00;103292.94;5097702;27;71259;-71
2023/02/04 00:22:38;;;;;;;;;11.33;10.67;;;;;12.24;100.00;103287.69;5079929;27;45434;-70
2023/02/04 00:25:04;;;;;;;;;10.50;10.50;;;;;12.25;100.00;103284.19;5098828;27;65977;-70
2023/02/04 00:27:29;;;;;;;;;11.33;10.00;;;;;12.25;100.00;103289.47;5098361;27;45630;-71
2023/02/04 00:29:56;;;;;;;;;14.50;10.00;;;;;12.26;100.00;103293.97;5098643;27;66058;-70
2023/02/04 00:32:21;;;;;;;;;8.33;8.33;;;;;12.25;100.00;103290.44;5097819;27;45399;-70
2023/02/04 00:34:46;;;;;;;;;9.00;9.00;;;;;12.25;100.00;103286.84;5099000;27;58173;-71
2023/02/04 00:37:12;;;;;;;;;11.75;10.75;;;;;12.28;100.00;103289.63;5098866;27;45602;-70
2023/02/04 00:39:37;;;;;;;;;10.00;9.67;;;;;12.27;100.00;103287.84;5098449;27;59921;-70
2023/02/04 00:42:04;;;;;;;;;10.33;10.00;;;;;12.26;100.00;103276.34;5098115;27;65344;-70
2023/02/04 00:44:29;;;;;;;;;10.67;8.00;;;;;12.28;100.00;103279.94;5077191;27;45393;-70
2023/02/04 00:46:55;;;;;;;;;8.00;6.00;;;;;12.29;100.00;103284.41;5099278;27;45227;-70
2023/02/04 00:49:20;;;;;;;;;10.00;9.67;;;;;12.30;100.00;103287.94;5099124;27;46664;-70
2023/02/04 00:51:45;;;;;;;;;10.00;9.00;;;;;12.30;100.00;103280.00;5098302;27;49628;-70
2023/02/04 00:54:11;;;;;;;;;11.25;9.75;;;;;12.27;100.00;103272.84;5098568;27;62675;-70
2023/02/04 00:56:36;;;;;;;;;10.25;9.25;;;;;12.26;100.00;103278.09;5098310;27;46012;-70
2023/02/04 00:59:02;;;;;;;;;8.00;8.00;;;;;12.27;100.00;103282.53;5097864;27;71298;-70
2023/02/04 01:01:28;;;;;;;;;19.00;12.00;;;;;12.24;100.00;103278.00;5098101;27;45263;-70
2023/02/04 01:03:53;;;;;;;;;8.00;8.00;;;;;12.22;100.00;103286.72;5095369;27;45416;-70
2023/02/04 01:06:18;;;;;;;;;10.00;10.00;;;;;12.22;100.00;103286.72;5084559;27;45281;-71
2023/02/04 01:08:44;;;;;;;;;10.67;10.33;;;;;12.22;100.00;103292.03;5098180;27;50900;-70
2023/02/04 01:11:09;;;;;;;;;12.67;8.00;;;;;12.23;100.00;103285.88;5077366;27;45611;-70
2023/02/04 01:13:34;;;;;;;;;12.50;9.25;;;;;12.24;100.00;103288.59;5098026;27;57204;-71
2023/02/04 01:16:00;;;;;;;;;11.33;9.00;;;;;12.24;100.00;103285.94;5097900;27;55546;-71
2023/02/04 01:18:25;;;;;;;;;14.67;9.67;;;;;12.20;100.00;103286.66;5081214;27;70657;-70
2023/02/04 01:20:50;;;;;;;;;11.00;11.00;;;;;12.22;100.00;103290.28;5098054;27;45309;-70
2023/02/04 01:23:16;;;;;;;;;9.00;7.33;;;;;12.19;100.00;103291.88;5076641;28;60525;-70
2023/02/04 01:25:41;;;;;;;;;14.67;10.67;;;;;12.18;100.00;103298.00;5094714;27;58658;-70
2023/02/04 01:28:07;;;;;;;;;12.33;9.67;;;;;12.18;100.00;103304.22;5094455;27;46726;-70
2023/02/04 01:30:32;;;;;;;;;11.67;9.00;;;;;12.18;100.00;103292.72;5098570;27;45408;-70
2023/02/04 01:32:57;;;;;;;;;15.00;11.33;;;;;12.16;100.00;103295.31;5079182;27;65359;-70
2023/02/04 01:35:23;;;;;;;;;9.75;9.00;;;;;12.20;100.00;103309.59;5079756;27;45441;-70
2023/02/04 01:37:49;;;;;;;;;13.25;10.00;;;;;12.19;100.00;103305.13;5098404;27;45684;-70
2023/02/04 01:40:14;;;;;;;;;12.50;8.75;;;;;12.22;100.00;103303.53;5097027;27;62779;-70
2023/02/04 01:42:39;;;;;;;;;11.50;9.50;;;;;12.19;100.00;103306.03;5097768;27;46981;-71
2023/02/04 01:45:05;;;;;;;;;12.75;11.75;;;;;12.22;100.00;103305.25;5097295;27;50616;-71
2023/02/04 01:47:31;;;;;;;;;13.50;11.50;;;;;12.24;100.00;103315.06;5079244;27;47554;-70
2023/02/04 01:49:57;;;;;;;;;16.00;11.67;;;;;12.24;100.00;103309.78;5079330;27;45486;-71
2023/02/04 01:52:23;;;;;;;;;16.25;12.00;;;;;12.25;100.00;103308.97;5096318;27;57936;-71
2023/02/04 01:54:48;;;;;;;;;11.67;9.67;;;;;12.26;100.00;103312.53;5079620;27;45496;-70
2023/02/04 01:57:15;;;;;;;;;17.67;12.00;;;;;12.21;100.00;103300.81;5071496;27;45686;-70
2023/02/04 01:59:45;;;;;;;;;15.00;10.25;;;;;12.27;100.00;103306.38;5092040;27;45335;-71
2023/02/04 02:02:38;;;;;;;;;10.00;9.33;;;;;12.27;100.00;103307.28;5076337;27;45434;-71
2023/02/04 02:05:03;;;;;;;;;11.00;9.67;;;;;12.27;100.00;103303.72;5079760;27;45686;-70
2023/02/04 02:07:29;;;;;;;;;8.33;8.33;;;;;12.27;100.00;103298.44;5097483;27;46811;-71
2023/02/04 02:09:54;;;;;;;;;14.25;11.00;;;;;12.27;100.00;103294.03;5097414;27;46451;-70
2023/02/04 02:12:19;;;;;;;;;16.00;11.00;;;;;12.27;100.00;103286.09;5096786;27;66801;-70
2023/02/04 02:14:45;;;;;;;;;10.00;10.00;;;;;12.29;100.00;103296.75;5097362;27;57577;-71
2023/02/04 02:17:10;;;;;;;;;15.00;11.25;;;;;12.27;100.00;103291.38;5095845;27;68471;-70
2023/02/04 02:19:36;;;;;;;;;16.00;12.00;;;;;12.29;100.00;103286.13;5070232;28;67056;-71
2023/02/04 02:22:05;;;;;;;;;13.50;13.25;;;;;12.29;100.00;103283.50;5075100;27;45320;-70
2023/02/04 02:24:32;;;;;;;;;18.00;12.00;;;;;12.30;100.00;103290.59;5079704;27;45519;-70
2023/02/04 02:27:00;;;;;;;;;18.25;11.50;;;;;12.28;100.00;103281.69;5078717;27;45952;-71
2023/02/04 02:29:26;;;;;;;;;11.50;10.75;;;;;12.29;100.00;103287.03;5070657;27;45304;-70
2023/02/04 02:31:52;;;;;;;;;18.25;12.25;;;;;12.26;100.00;103281.63;5078056;27;60581;-70
2023/02/04 02:34:18;;;;;;;;;15.00;13.00;;;;;12.27;100.00;103279.88;5074400;28;45324;-71
2023/02/04 02:36:43;;;;;;;;;12.75;10.00;;;;;12.27;100.00;103285.19;5073416;27;46117;-70
2023/02/04 02:39:09;;;;;;;;;17.00;13.00;;;;;12.28;100.00;103287.00;5077304;27;61118;-70
2023/02/04 02:41:34;;;;;;;;;17.25;14.75;;;;;12.28;100.00;103287.88;5096849;27;52260;-71
2023/02/04 02:44:00;;;;;;;;;14.33;11.00;;;;;12.26;100.00;103286.94;5078858;27;45315;-70
2023/02/04 02:46:26;;;;;;;;;18.50;14.00;;;;;12.27;100.00;103291.38;5096767;27;46816;-70
2023/02/04 02:48:51;;;;;;;;;17.50;12.25;;;;;12.28;100.00;103289.63;5078908;27;45363;-70
2023/02/04 02:51:17;;;;;;;;;15.00;12.75;;;;;12.27;100.00;103293.13;5095755;27;65529;-70
2023/02/04 02:53:48;;;;;;;;;16.50;13.00;;;;;12.26;100.00;103294.88;5097178;27;61736;-71
2023/02/04 02:56:14;;;;;;;;;16.25;12.00;;;;;12.24;100.00;103285.94;5096068;27;47757;-71
2023/02/04 02:58:39;;;;;;;;;14.33;12.67;;;;;12.26;100.00;103286.03;5086964;27;45377;-70
2023/02/04 03:01:07;;;;;;;;;11.67;11.33;;;;;12.28;100.00;103289.63;5094439;27;60996;-70
2023/02/04 03:03:35;;;;;;;;;13.75;11.75;;;;;12.24;100.00;103291.22;5079268;27;45385;-71
2023/02/04 03:06:05;;;;;;;;;17.50;11.75;;;;;12.23;100.00;103294.72;5095952;27;47579;-70
2023/02/04 03:08:30;;;;;;;;;14.75;14.75;;;;;12.24;100.00;103295.63;5078673;27;45367;-70
2023/02/04 03:10:56;;;;;;;;;12.50;12.50;;;;;12.23;100.00;103294.72;5095918;27;56084;-70
2023/02/04 03:13:21;;;;;;;;;15.50;12.25;;;;;12.25;100.00;103295.72;5095106;27;60905;-70
2023/02/04 03:15:47;;;;;;;;;13.75;13.00;;;;;12.25;100.00;103295.72;5077357;27;72499;-70
2023/02/04 03:18:15;;;;;;;;;17.00;12.50;;;;;12.24;100.00;103285.03;5095966;27;45317;-70
2023/02/04 03:20:40;;;;;;;;;15.50;11.25;;;;;12.26;100.00;103291.31;5089958;27;45364;-70
2023/02/04 03:23:06;;;;;;;;;13.75;13.00;;;;;12.26;100.00;103288.69;5078954;27;45324;-71
2023/02/04 03:25:31;;;;;;;;;15.25;15.00;;;;;12.24;100.00;103283.28;5095239;27;70912;-70
2023/02/04 03:27:57;;;;;;;;;14.33;12.33;;;;;12.26;100.00;103291.31;5086071;27;68578;-71
2023/02/04 03:30:23;;;;;;;;;16.00;12.00;;;;;12.25;100.00;103290.44;5093437;27;45364;-71
2023/02/04 03:32:49;;;;;;;;;21.00;12.50;;;;;12.21;100.00;103288.47;5080976;27;45449;-71
2023/02/04 03:35:15;;;;;;;;;15.75;12.75;;;;;12.21;100.00;103298.16;5066856;27;47541;-70
2023/02/04 03:37:40;;;;;;;;;13.50;11.00;;;;;12.19;100.00;103290.13;5082024;27;45370;-70
2023/02/04 03:40:06;;;;;;;;;20.75;15.75;;;;;12.17;100.00;103289.16;5095898;27;60622;-71
2023/02/04 03:42:31;;;;;;;;;12.00;9.00;;;;;12.11;100.00;103288.00;5096420;27;45310;-70
2023/02/04 03:44:56;;;;;;;;;16.00;13.50;;;;;12.13;100.00;103302.22;5095858;27;69166;-70
2023/02/04 03:47:22;;;;;;;;;13.00;11.75;;;;;12.10;100.00;103300.34;5096312;27;45456;-70
2023/02/04 03:49:47;;;;;;;;;17.25;12.50;;;;;12.05;100.00;103297.47;5077329;27;61196;-70
2023/02/04 03:52:12;;;;;;;;;12.25;12.25;;;;;12.06;100.00;103304.59;5077617;27;61960;-70
2023/02/04 03:54:37;;;;;;;;;13.00;11.25;;;;;12.06;100.00;103301.94;5094767;27;71241;-71
2023/02/04 03:57:03;;;;;;;;;15.00;13.25;;;;;12.08;100.00;103296.69;5095858;27;70110;-70
2023/02/04 03:59:28;;;;;;;;;17.00;13.25;;;;;12.07;100.00;103301.09;5095499;27;62135;-71
2023/02/04 04:01:54;;;;;;;;;13.75;12.75;;;;;12.10;100.00;103302.09;5077917;27;45380;-70
2023/02/04 04:04:19;;;;;;;;;15.50;12.50;;;;;12.08;100.00;103307.28;5094302;27;45827;-70
2023/02/04 04:06:44;;;;;;;;;16.75;14.00;;;;;12.05;100.00;103310.72;5086073;27;68378;-71
2023/02/04 04:09:10;;;;;;;;;13.75;12.50;;;;;12.05;100.00;103308.06;5085943;27;61681;-70
2023/02/04 04:11:35;;;;;;;;;14.33;13.00;;;;;12.04;100.00;103310.66;5075516;27;45466;-70
2023/02/04 04:14:00;;;;;;;;;12.00;12.00;;;;;12.00;100.00;103303.41;5081419;27;50247;-71
2023/02/04 04:16:27;;;;;;;;;12.50;12.25;;;;;12.02;100.00;103310.56;5097124;27;46560;-70
2023/02/04 04:18:52;;;;;;;;;12.50;12.00;;;;;12.03;100.00;103312.38;5098436;27;45517;-70
2023/02/04 04:21:17;;;;;;;;;14.50;11.75;;;;;12.03;100.00;103319.41;5081164;27;45462;-71
2023/02/04 04:23:43;;;;;;;;;16.00;10.25;;;;;12.02;100.00;103307.03;5080175;27;65292;-71
2023/02/04 04:26:08;;;;;;;;;16.50;10.50;;;;;12.01;100.00;103313.16;5099488;27;45451;-70
2023/02/04 04:28:33;;;;;;;;;11.75;11.00;;;;;12.00;100.00;103314.00;5098143;27;62074;-70
2023/02/04 04:30:59;;;;;;;;;19.50;12.50;;;;;12.00;100.00;103309.63;5097643;27;63237;-70
2023/02/04 04:33:24;;;;;;;;;15.75;11.75;;;;;12.04;100.00;103316.88;5098029;27;66851;-70
2023/02/04 04:35:49;;;;;;;;;11.50;11.50;;;;;12.05;100.00;103321.31;5091565;27;68520;-70
2023/02/04 04:38:15;;;;;;;;;15.33;9.33;;;;;12.07;100.00;103327.56;5089126;27;63293;-70
2023/02/04 04:40:40;;;;;;;;;17.00;12.50;;;;;12.05;100.00;103318.66;5098633;27;47834;-71
2023/02/04 04:43:05;;;;;;;;;17.25;11.50;;;;;12.06;100.00;103320.47;5098770;27;68512;-70
2023/02/04 04:45:31;;;;;;;;;13.75;12.25;;;;;12.09;100.00;103325.03;5097780;27;69500;-70
2023/02/04 04:47:56;;;;;;;;;17.00;11.00;;;;;12.08;100.00;103328.47;5098101;27;62271;-70
2023/02/04 04:50:21;;;;;;;;;13.50;10.00;;;;;12.07;100.00;103321.38;5099377;27;45464;-70
2023/02/04 04:52:47;;;;;;;;;12.50;12.50;;;;;12.06;100.00;103323.13;5097100;27;64828;-70
2023/02/04 04:55:12;;;;;;;;;17.00;13.25;;;;;12.06;100.00;103323.13;5098610;27;67305;-70
2023/02/04 04:57:38;;;;;;;;;10.33;10.33;;;;;12.07;100.00;103322.28;5097990;27;52898;-70
2023/02/04 05:00:04;;;;;;;;;19.25;11.75;;;;;12.08;100.00;103323.19;5080744;27;45451;-71
2023/02/04 05:02:30;;;;;;;;;12.50;8.75;;;;;12.09;100.00;103332.97;5098672;27;46694;-70
2023/02/04 05:04:55;;;;;;;;;13.00;10.00;;;;;12.06;100.00;103336.38;5094308;27;63434;-70
2023/02/04 05:07:20;;;;;;;;;14.67;11.00;;;;;12.03;100.00;103327.38;5095741;27;60522;-71
2023/02/04 05:09:46;;;;;;;;;12.75;12.00;;;;;12.07;100.00;103331.97;5088895;27;61418;-71
2023/02/04 05:12:11;;;;;;;;;11.50;10.50;;;;;12.07;100.00;103329.31;5088359;27;48400;-71
2023/02/04 05:14:36;;;;;;;;;14.75;11.25;;;;;12.07;100.00;103329.31;5080659;27;64493;-70
2023/02/04 05:17:02;;;;;;;;;15.33;11.00;;;;;12.10;100.00;103337.41;5097533;27;62429;-70
2023/02/04 05:19:27;;;;;;;;;15.67;12.00;;;;;12.10;100.00;103336.50;5079968;27;45587;-70
2023/02/04 05:21:52;;;;;;;;;12.00;10.75;;;;;12.10;100.00;103331.22;5098027;27;69341;-70
2023/02/04 05:24:18;;;;;;;;;12.75;11.00;;;;;12.08;100.00;103325.81;5097688;27;57921;-71
2023/02/04 05:26:43;;;;;;;;;12.00;10.00;;;;;12.04;100.00;103343.34;5096893;27;45487;-70
2023/02/04 05:29:09;;;;;;;;;15.75;9.75;;;;;12.05;100.00;103338.94;5078612;27;60895;-70
2023/02/04 05:31:34;;;;;;;;;11.25;9.00;;;;;12.06;100.00;103340.75;5097846;27;46558;-71
2023/02/04 05:34:00;;;;;;;;;11.67;9.67;;;;;12.07;100.00;103343.47;5097160;27;68946;-71
2023/02/04 05:36:26;;;;;;;;;9.75;9.75;;;;;12.09;100.00;103334.69;5098400;27;45399;-71
2023/02/04 05:38:51;;;;;;;;;12.25;10.00;;;;;12.11;100.00;103338.31;5098289;27;45322;-70
2023/02/04 05:41:17;;;;;;;;;11.75;11.25;;;;;12.11;100.00;103335.69;5097772;27;51583;-70
2023/02/04 05:43:42;;;;;;;;;16.25;10.50;;;;;12.14;100.00;103339.34;5097879;27;64756;-70
2023/02/04 05:46:07;;;;;;;;;19.50;15.75;;;;;12.15;100.00;103346.47;5078267;27;60578;-70
2023/02/04 05:48:33;;;;;;;;;16.50;12.75;;;;;12.17;100.00;103343.88;5079905;27;45453;-71
2023/02/04 05:50:58;;;;;;;;;16.00;12.00;;;;;12.18;100.00;103356.28;5094098;27;68090;-70
2023/02/04 05:53:23;;;;;;;;;13.00;9.50;;;;;12.16;100.00;103357.97;5097242;27;45368;-70
2023/02/04 05:55:49;;;;;;;;;10.00;9.00;;;;;12.10;100.00;103348.00;5078765;27;65524;-70
2023/02/04 05:58:14;;;;;;;;;11.00;8.75;;;;;12.11;100.00;103351.56;5097352;27;63967;-70
2023/02/04 06:00:39;;;;;;;;;17.75;13.75;;;;;12.09;100.00;103355.88;5097519;27;59111;-70
2023/02/04 06:03:05;;;;;;;;;9.67;8.00;;;;;12.09;100.00;103361.16;5094844;27;69061;-70
2023/02/04 06:05:31;;;;;;;;;7.00;7.00;;;;;12.07;100.00;103354.06;5097624;27;45398;-71
2023/02/04 06:07:56;;;;;;;;;14.75;9.00;;;;;12.09;100.00;103367.41;5097077;27;45578;-70
2023/02/04 06:10:22;;;;;;;;;11.50;9.25;;;;;12.10;100.00;103363.00;5097300;27;45895;-70
2023/02/04 06:12:47;;;;;;;;;11.00;9.00;;;;;12.12;100.00;103361.31;5096355;27;66377;-70
2023/02/04 06:15:13;;;;;;;;;9.67;6.33;;;;;12.11;100.00;103368.34;5096673;27;60762;-70
2023/02/04 06:17:38;;;;;;;;;16.00;10.00;;;;;12.11;100.00;103364.81;5097298;27;45406;-70
2023/02/04 06:20:04;;;;;;;;;9.33;8.00;;;;;12.11;100.00;103370.09;5096974;27;45939;-71
2023/02/04 06:22:30;;;;;;;;;8.00;8.00;;;;;12.09;100.00;103370.03;5078463;27;45433;-70
2023/02/04 06:24:55;;;;;;;;;10.00;8.00;;;;;12.10;100.00;103376.25;5085767;27;60922;-70
2023/02/04 06:27:24;;;;;;;;;9.33;9.00;;;;;12.07;100.00;103361.09;5076653;27;45545;-70
2023/02/04 06:29:50;;;;;;;;;7.33;6.00;;;;;12.08;100.00;103365.56;5097864;27;46353;-70
2023/02/04 06:32:16;;;;;;;;;15.75;10.75;;;;;12.09;100.00;103362.09;5078628;27;45396;-70
2023/02/04 06:34:42;;;;;;;;;10.67;9.00;;;;;12.09;100.00;103351.50;5090205;27;45582;-71
2023/02/04 06:37:07;;;;;;;;;12.00;10.33;;;;;12.09;100.00;103347.91;5094900;27;53292;-70
2023/02/04 06:39:32;;;;;;;;;7.00;7.00;;;;;12.11;100.00;103356.84;5096059;27;71114;-70
2023/02/04 06:41:58;;;;;;;;;10.25;9.00;;;;;12.08;100.00;103349.66;5096135;27;67969;-70
2023/02/04 06:44:23;;;;;;;;;10.67;9.00;;;;;12.06;100.00;103352.25;5096727;27;64673;-71
2023/02/04 06:46:48;;;;;;;;;12.25;7.00;;;;;12.05;100.00;103363.69;5096683;27;62733;-70
2023/02/04 06:49:14;;;;;;;;;9.75;6.50;;;;;12.04;100.00;103356.59;5096966;27;45729;-70
2023/02/04 06:51:39;;;;;;;;;11.00;7.25;;;;;12.03;100.00;103369.72;5078284;27;60793;-70
2023/02/04 06:54:04;;;;;;;;;17.00;11.25;;;;;12.03;100.00;103361.78;5079872;27;45296;-71
2023/02/04 06:56:30;;;;;;;;;12.00;10.50;;;;;12.00;100.00;103351.97;5078734;27;56808;-70
2023/02/04 06:58:55;;;;;;;;;12.25;11.00;;;;;11.97;100.00;103351.81;5096683;27;45568;-70
2023/02/04 07:01:20;;;;;;;;;10.50;8.50;;;;;11.90;100.00;103354.13;5080403;27;65029;-70
2023/02/04 07:03:46;;;;;;;;;13.75;10.00;;;;;11.87;100.00;103364.56;5090750;27;61694;-71
2023/02/04 07:06:11;;;;;;;;;12.50;9.50;;;;;11.83;100.00;103360.91;5096976;27;45373;-71
2023/02/04 07:08:36;;;;;;;;;15.75;9.50;;;;;11.83;100.00;103357.34;5095768;27;65299;-71
2023/02/04 07:11:02;;;;;;;;;11.00;7.67;;;;;11.79;100.00;103353.59;5096648;27;45321;-71
2023/02/04 07:13:27;;;;;;;;;15.50;11.50;;;;;11.81;100.00;103362.50;5096886;27;45445;-70
2023/02/04 07:15:52;;;;;;;;;16.50;10.25;;;;;11.80;100.00;103366.91;5096117;27;45468;-69
2023/02/04 07:18:18;;;;;;;;;10.33;9.00;;;;;11.77;100.00;103357.91;5082356;27;46640;-70
2023/02/04 07:20:44;;;;;;;;;10.67;9.67;;;;;11.79;100.00;103362.44;5091691;27;45456;-69
2023/02/04 07:23:09;;;;;;;;;12.75;11.25;;;;;11.80;100.00;103372.19;5092994;27;45586;-70
2023/02/04 07:25:35;;;;;;;;;12.25;9.00;;;;;11.80;100.00;103366.91;5090187;27;62939;-71
2023/02/04 07:28:02;;;;;;;;;22.00;11.00;;;;;11.80;100.00;103369.56;5089777;27;67234;-71
2023/02/04 07:30:27;;;;;;;;;14.00;10.25;;;;;11.84;100.00;103383.88;5072316;27;45661;-70
2023/02/04 07:32:53;;;;;;;;;14.25;12.00;;;;;11.87;100.00;103388.41;5095573;27;45461;-71
2023/02/04 07:35:18;;;;;;;;;18.25;12.50;;;;;11.86;100.00;103383.94;5079091;27;60350;-70
2023/02/04 07:37:44;;;;;;;;;11.75;9.75;;;;;11.87;100.00;103386.66;5086689;27;55825;-70
2023/02/04 07:40:11;;;;;;;;;15.50;11.75;;;;;11.90;100.00;103394.75;5088909;27;45624;-71
2023/02/04 07:42:36;;;;;;;;;16.25;13.25;;;;;11.90;100.00;103394.75;5088382;27;45583;-70
2023/02/04 07:45:01;;;;;;;;;12.50;11.25;;;;;11.90;100.00;103396.50;5095954;27;49746;-72
2023/02/04 07:47:27;;;;;;;;;14.00;12.00;;;;;11.92;100.00;103397.47;5095275;27;51475;-72
2023/02/04 07:49:55;;;;;;;;;13.75;10.25;;;;;11.92;100.00;103401.00;5099069;27;64614;-72
2023/02/04 07:52:21;;;;;;;;;12.00;9.50;;;;;11.96;100.00;103402.97;5099784;27;45429;-73
2023/02/04 07:54:47;;;;;;;;;15.75;11.25;;;;;11.98;100.00;103403.94;5100072;27;45596;-72
2023/02/04 07:57:12;;;;;;;;;0.00;0.00;;;;;12.03;100.00;103420.03;5090059;27;46414;-72
2023/02/04 07:59:37;;;;;;;;;15.50;10.75;;;;;12.05;100.00;103407.81;5075221;27;62467;-72
2023/02/04 08:02:03;;;;;;;;;17.75;14.25;;;;;12.06;100.00;103407.88;5072620;27;64232;-70
2023/02/04 08:04:28;;;;;;;;;12.25;10.75;;;;;12.08;100.00;103410.56;5092459;27;45453;-72
2023/02/04 08:06:53;;;;;;;;;11.00;10.00;;;;;12.08;100.00;103413.22;5076329;27;45934;-71
2023/02/04 08:09:19;;;;;;;;;16.50;12.50;;;;;12.11;100.00;103418.69;5076695;27;66335;-70
2023/02/04 08:11:44;;;;;;;;;14.75;12.00;;;;;12.11;100.00;103417.78;5234560;22;46627;-69
2023/02/04 08:14:10;;;;;;;;;10.50;8.25;;;;;12.07;100.00;103417.63;5097584;27;45421;-69
2023/02/04 08:16:35;;;;;;;;;16.00;10.50;;;;;12.15;100.00;103425.03;5097324;27;46283;-69
2023/02/04 08:19:00;;;;;;;;;15.00;12.25;;;;;12.13;100.00;103411.69;5094582;27;45457;-69
2023/02/04 08:21:26;;;;;;;;;14.00;11.25;;;;;12.17;100.00;103429.53;5093323;27;45663;-69
2023/02/04 08:23:51;;;;;;;;;14.75;10.75;;;;;12.19;100.00;103419.00;5093561;27;61383;-69
2023/02/04 08:26:16;;;;;;;;;11.25;9.75;;;;;12.18;100.00;103417.22;5091833;27;67015;-69
2023/02/04 08:28:42;;;;;;;;;17.50;13.25;;;;;12.21;100.00;103420.00;5097195;27;64181;-69
2023/02/04 08:31:11;;;;;;;;;12.50;10.75;;;;;12.25;100.00;103421.94;5099517;27;45398;-69
2023/02/04 08:33:39;;;;;;;;;13.50;10.00;;;;;12.28;100.00;103422.09;5080669;27;45509;-69
2023/02/04 08:36:05;;;;;;;;;17.00;12.00;;;;;12.29;100.00;103431.84;5097595;27;57064;-69
2023/02/04 08:38:31;;;;;;;;;14.33;12.00;;;;;12.30;100.00;103421.34;5077149;28;45491;-69
2023/02/04 08:40:56;;;;;;;;;22.25;15.00;;;;;12.33;100.00;103432.06;5081112;27;65560;-69
2023/02/04 08:43:21;;;;;;;;;14.50;11.25;;;;;12.35;100.00;103428.56;5102244;27;47149;-69
2023/02/04 08:45:47;;;;;;;;;10.00;10.00;;;;;12.34;100.00;103427.66;5090720;27;71502;-69
2023/02/04 08:48:12;;;;;;;;;12.25;11.00;;;;;12.37;100.00;103422.50;5096909;27;65800;-69
2023/02/04 08:50:37;;;;;;;;;12.75;11.50;;;;;12.39;100.00;103436.72;5097705;27;60125;-69
2023/02/04 08:53:03;;;;;;;;;13.00;10.67;;;;;12.38;100.00;103431.38;5088252;27;63649;-69
2023/02/04 08:55:28;;;;;;;;;11.00;9.25;;;;;12.40;100.00;103433.22;5097209;27;47656;-69
2023/02/04 08:57:53;;;;;;;;;13.00;10.25;;;;;12.39;100.00;103431.44;5098460;27;45417;-69
2023/02/04 09:00:19;;;;;;;;;12.00;8.67;;;;;12.41;100.00;103436.78;5096403;27;49716;-70
2023/02/04 09:02:44;;;;;;;;;8.00;7.33;;;;;12.40;100.00;103441.19;5094509;27;45350;-70
2023/02/04 09:05:10;;;;;;;;;11.67;9.00;;;;;12.43;100.00;103432.47;5098369;27;46320;-70
2023/02/04 09:07:35;;;;;;;;;9.00;8.67;;;;;12.43;100.00;103437.78;5095182;27;45260;-70
2023/02/04 09:10:01;;;;;;;;;17.75;11.75;;;;;12.46;100.00;103436.16;5093851;27;45502;-70
2023/02/04 09:12:26;;;;;;;;;13.50;7.50;;;;;12.46;100.00;103440.56;5078479;27;45422;-69
2023/02/04 09:14:51;;;;;;;;;15.33;10.67;;;;;12.45;100.00;103439.66;5069496;28;60577;-69
2023/02/04 09:17:17;;;;;;;;;11.75;10.50;;;;;12.41;100.00;103442.09;5058984;28;67278;-69
2023/02/04 09:19:43;;;;;;;;;8.33;8.00;;;;;12.42;100.00;103449.22;5076736;28;45368;-69
2023/02/04 09:22:08;;;;;;;;;13.67;8.33;;;;;12.43;100.00;103458.97;5077598;28;45549;-69
2023/02/04 09:24:34;;;;;;;;;11.00;9.00;;;;;12.40;100.00;103457.09;5076694;28;45692;-69
2023/02/04 09:26:59;;;;;;;;;7.33;7.33;;;;;12.39;100.00;103454.38;5068993;28;63304;-69
2023/02/04 09:29:24;;;;;;;;;10.67;6.00;;;;;12.41;100.00;103453.63;5066360;28;45213;-69
2023/02/04 09:31:50;;;;;;;;;9.67;8.00;;;;;12.45;100.00;103447.59;5075205;28;45415;-70
2023/02/04 09:34:15;;;;;;;;;8.00;8.00;;;;;12.45;100.00;103452.00;5046287;28;47685;-69
2023/02/04 09:36:40;;;;;;;;;9.00;9.00;;;;;12.46;100.00;103454.69;5077419;28;59187;-70
2023/02/04 09:39:08;;;;;;;;;12.00;7.33;;;;;12.45;100.00;103454.66;5077719;28;45306;-69
2023/02/04 09:41:34;;;;;;;;;6.33;5.67;;;;;12.44;100.00;103451.09;5077151;28;45280;-70
2023/02/04 09:44:00;;;;;;;;;8.67;5.67;;;;;12.45;100.00;103452.00;5069984;28;46611;-69
2023/02/04 09:46:29;;;;;;;;;8.00;8.00;;;;;12.43;100.00;103454.59;5068289;28;45337;-69
2023/02/04 09:48:54;;;;;;;;;19.00;16.00;;;;;12.42;100.00;103455.44;5075043;28;45610;-69
2023/02/04 09:51:24;;;;;;;;;12.00;9.50;;;;;12.40;100.00;103459.72;5042366;28;45589;-70
2023/02/04 09:53:52;;;;;;;;;7.33;7.33;;;;;12.38;100.00;103456.13;5062036;28;47087;-69
2023/02/04 09:56:18;;;;;;;;;10.33;8.33;;;;;12.40;100.00;103459.72;5058860;28;45546;-69
2023/02/04 09:58:43;;;;;;;;;11.67;10.00;;;;;12.43;100.00;103459.88;5075352;28;46566;-70
2023/02/04 10:01:19;;;;;;;;;10.50;8.75;;;;;12.46;100.00;103469.69;5073960;28;45276;-69
2023/02/04 10:03:46;;;;;;;;;8.67;7.33;;;;;12.47;100.00;103455.63;5072993;28;46614;-70
2023/02/04 10:06:18;;;;;;;;;13.67;10.00;;;;;12.52;100.00;103464.72;5054466;28;45333;-69
2023/02/04 10:08:45;;;;;;;;;9.75;9.00;;;;;12.55;100.00;103470.13;5059875;28;45217;-69
2023/02/04 10:11:12;;;;;;;;;10.00;9.00;;;;;12.56;100.00;103478.13;5071959;27;45461;-70
2023/02/04 10:13:41;;;;;;;;;9.75;8.50;;;;;12.60;100.00;103481.84;5053632;28;45796;-70
2023/02/04 10:16:16;;;;;;;;;13.25;10.25;;;;;12.58;100.00;103476.47;5050096;28;45282;-70
2023/02/04 10:18:42;;;;;;;;;9.00;9.00;;;;;12.59;100.00;103478.28;5063632;28;45591;-70
2023/02/04 10:21:19;;;;;;;;;11.00;8.50;;;;;12.61;100.00;103488.03;5050861;28;45419;-70
2023/02/04 10:23:47;;;;;;;;;11.00;9.33;;;;;12.63;100.00;103483.75;5070133;28;46100;-70
2023/02/04 10:26:14;;;;;;;;;8.67;8.67;;;;;12.63;100.00;103489.94;5057222;28;45455;-69
2023/02/04 10:28:40;;;;;;;;;16.33;11.00;;;;;12.62;100.00;103484.56;5075059;28;45428;-69
2023/02/04 10:31:10;;;;;;;;;13.00;12.75;;;;;12.63;100.00;103489.03;5059028;28;45430;-69
2023/02/04 10:33:37;;;;;;;;;10.33;9.00;;;;;12.64;100.00;103490.84;5055426;28;47346;-69
2023/02/04 10:36:04;;;;;;;;;12.00;11.00;;;;;12.67;100.00;103491.88;5074048;28;45415;-70
2023/02/04 10:38:29;;;;;;;;;12.33;11.00;;;;;12.64;100.00;103486.44;5056914;28;45483;-70
2023/02/04 10:41:02;;;;;;;;;11.25;9.75;;;;;12.70;100.00;103488.47;5075718;28;63913;-69
2023/02/04 10:43:27;;;;;;;;;19.33;13.00;;;;;12.77;100.00;103503.81;5053942;28;47597;-69
2023/02/04 10:46:03;;;;;;;;;14.50;12.75;;;;;12.80;100.00;103499.56;5076791;28;45796;-69
2023/02/04 10:48:29;;;;;;;;;18.67;11.67;;;;;12.86;100.00;103504.22;5056934;28;45368;-69
2023/02/04 10:50:57;;;;;;;;;11.25;10.00;;;;;12.93;100.00;103505.38;5059251;28;45330;-69
2023/02/04 10:56:16;;;;;;;;;12.50;11.00;;;;;13.01;100.00;103502.25;5069181;28;45347;-69
2023/02/04 10:58:42;;;;;;;;;12.33;11.00;;;;;13.07;100.00;103498.97;5053858;28;45451;-69
2023/02/04 11:01:13;;;;;;;;;12.00;11.00;;;;;13.09;100.00;103498.16;5072943;28;53248;-69